createdAt,value
2018-10-16T00:00:53.501Z,946.75
2018-10-16T00:01:53.498Z,946.74
2018-10-16T00:02:53.497Z,946.72
2018-10-16T00:03:53.491Z,946.71
2018-10-16T00:04:53.485Z,946.73
2018-10-16T00:05:53.478Z,946.73
2018-10-16T00:06:53.474Z,946.74
2018-10-16T00:07:53.466Z,946.77
2018-10-16T00:08:53.460Z,946.74
2018-10-16T00:09:53.456Z,946.73
2018-10-16T00:10:53.451Z,946.72
2018-10-16T00:11:54.276Z,946.70
2018-10-16T00:12:53.449Z,946.73
2018-10-16T00:13:53.437Z,946.69
2018-10-16T00:14:53.432Z,946.71
2018-10-16T00:15:53.425Z,946.74
2018-10-16T00:16:53.423Z,946.74
2018-10-16T00:17:53.420Z,946.75
2018-10-16T00:18:53.414Z,946.74
2018-10-16T00:19:53.410Z,946.72
2018-10-16T00:20:53.402Z,946.74
2018-10-16T00:21:53.395Z,946.71
2018-10-16T00:22:53.389Z,946.75
2018-10-16T00:23:53.387Z,946.74
2018-10-16T00:24:53.384Z,946.72
2018-10-16T00:25:53.376Z,946.68
2018-10-16T00:26:53.372Z,946.75
2018-10-16T00:27:53.366Z,946.71
2018-10-16T00:28:53.364Z,946.74
2018-10-16T00:29:53.357Z,946.76
2018-10-16T00:30:53.351Z,946.72
2018-10-16T00:31:53.347Z,946.78
2018-10-16T00:32:53.340Z,946.71
2018-10-16T00:33:53.337Z,946.75
2018-10-16T00:34:53.334Z,946.76
2018-10-16T00:35:53.331Z,946.81
2018-10-16T00:36:53.320Z,946.78
2018-10-16T00:37:53.316Z,946.82
2018-10-16T00:38:53.312Z,946.79
2018-10-16T00:39:53.307Z,946.81
2018-10-16T00:40:53.299Z,946.81
2018-10-16T00:41:53.295Z,946.81
2018-10-16T00:42:53.289Z,946.82
2018-10-16T00:43:53.295Z,946.78
2018-10-16T00:44:53.286Z,946.81
2018-10-16T00:45:53.274Z,946.82
2018-10-16T00:46:53.275Z,946.81
2018-10-16T00:47:53.273Z,946.86
2018-10-16T00:48:53.263Z,946.87
2018-10-16T00:49:53.258Z,946.86
2018-10-16T00:50:53.252Z,946.83
2018-10-16T00:51:53.249Z,946.83
2018-10-16T00:52:53.240Z,946.86
2018-10-16T00:53:53.239Z,946.85
2018-10-16T00:54:53.313Z,946.82
2018-10-16T00:55:53.226Z,946.82
2018-10-16T00:56:53.222Z,946.86
2018-10-16T00:57:53.217Z,946.83
2018-10-16T00:58:53.209Z,946.86
2018-10-16T00:59:53.213Z,946.85
2018-10-16T01:00:53.197Z,946.87
2018-10-16T01:01:53.787Z,946.85
2018-10-16T01:02:53.193Z,946.90
2018-10-16T01:03:53.184Z,946.88
2018-10-16T01:04:53.180Z,946.88
2018-10-16T01:05:53.177Z,946.87
2018-10-16T01:06:53.170Z,946.87
2018-10-16T01:07:53.171Z,946.85
2018-10-16T01:08:53.158Z,946.87
2018-10-16T01:09:53.154Z,946.86
2018-10-16T01:10:53.147Z,946.87
2018-10-16T01:11:53.143Z,946.87
2018-10-16T01:12:53.139Z,946.89
2018-10-16T01:13:53.133Z,946.94
2018-10-16T01:14:53.130Z,946.90
2018-10-16T01:15:53.122Z,946.88
2018-10-16T01:16:53.112Z,946.91
2018-10-16T01:17:53.119Z,946.90
2018-10-16T01:18:53.104Z,946.91
2018-10-16T01:19:53.100Z,946.95
2018-10-16T01:20:53.098Z,946.96
2018-10-16T01:21:53.094Z,946.95
2018-10-16T01:22:53.088Z,946.95
2018-10-16T01:23:53.080Z,946.97
2018-10-16T01:24:53.074Z,946.97
2018-10-16T01:25:53.070Z,946.94
2018-10-16T01:26:53.062Z,946.99
2018-10-16T01:27:53.058Z,947.03
2018-10-16T01:28:53.052Z,947.05
